createdAt,value
2018-03-28T00:02:04.465Z,29.70
2018-03-28T00:04:32.388Z,29.70
2018-03-28T00:07:00.210Z,29.50
2018-03-28T00:09:28.127Z,29.50
2018-03-28T00:11:55.892Z,29.50
2018-03-28T00:14:23.726Z,29.60
2018-03-28T00:16:51.495Z,29.60
2018-03-28T00:19:19.629Z,29.50
2018-03-28T00:21:47.514Z,29.50
2018-03-28T00:24:15.395Z,29.60
2018-03-28T00:26:43.257Z,29.60
2018-03-28T00:29:11.002Z,29.60
2018-03-28T00:31:39.010Z,29.70
2018-03-28T00:34:06.747Z,29.60
2018-03-28T00:36:34.506Z,29.70
2018-03-28T00:39:02.484Z,29.70
2018-03-28T00:41:30.464Z,29.70
2018-03-28T00:43:58.370Z,29.70
2018-03-28T00:46:26.189Z,29.80
2018-03-28T00:48:54.051Z,29.80
2018-03-28T00:51:21.865Z,29.70
2018-03-28T00:53:49.681Z,29.60
2018-03-28T00:56:17.564Z,29.80
2018-03-28T00:58:45.491Z,29.90
2018-03-28T01:01:13.477Z,29.80
2018-03-28T01:03:41.263Z,29.80
2018-03-28T01:06:09.162Z,29.90
2018-03-28T01:08:37.803Z,30.00
2018-03-28T01:11:05.731Z,30.00
2018-03-28T01:13:33.475Z,29.80
2018-03-28T01:16:01.246Z,30.00
2018-03-28T01:18:30.027Z,30.00
2018-03-28T01:20:58.549Z,30.00
2018-03-28T01:23:26.495Z,30.00
2018-03-28T01:25:54.435Z,30.00
2018-03-28T01:28:22.260Z,30.00
2018-03-28T01:30:50.187Z,29.90
2018-03-28T01:33:18.777Z,30.00
2018-03-28T01:35:46.789Z,30.00
2018-03-28T01:38:14.658Z,29.90
2018-03-28T01:40:42.519Z,29.80
2018-03-28T01:43:10.424Z,29.70
2018-03-28T01:45:38.370Z,29.50
2018-03-28T01:48:07.006Z,29.60
2018-03-28T01:50:34.886Z,29.60
2018-03-28T01:53:02.842Z,29.30
2018-03-28T01:55:30.855Z,29.40
2018-03-28T01:57:58.808Z,29.40
2018-03-28T02:00:26.528Z,29.40
2018-03-28T02:02:54.440Z,29.50
2018-03-28T02:05:22.285Z,29.40
2018-03-28T02:07:50.074Z,29.60
2018-03-28T02:10:17.938Z,29.60
2018-03-28T02:12:46.466Z,29.80
2018-03-28T02:15:14.320Z,29.70
2018-03-28T02:17:42.228Z,29.70
2018-03-28T02:20:10.019Z,29.70
2018-03-28T02:22:37.875Z,29.60
2018-03-28T02:25:06.570Z,29.90
2018-03-28T02:27:35.304Z,29.90
2018-03-28T02:30:03.152Z,29.80
2018-03-28T02:32:31.064Z,29.70
2018-03-28T02:34:59.021Z,29.70
2018-03-28T02:37:27.045Z,29.70
2018-03-28T02:39:54.834Z,29.80
2018-03-28T02:42:22.800Z,29.80
2018-03-28T02:44:50.804Z,29.90
2018-03-28T02:47:18.653Z,29.80
2018-03-28T02:49:46.526Z,29.90
2018-03-28T02:52:14.425Z,29.80
2018-03-28T02:54:43.098Z,30.00
2018-03-28T02:57:10.934Z,30.00
2018-03-28T02:59:38.816Z,29.90
2018-03-28T03:02:06.597Z,30.00
2018-03-28T03:04:35.339Z,30.00
2018-03-28T03:07:03.197Z,30.00
2018-03-28T03:09:31.144Z,30.00
2018-03-28T03:11:58.908Z,30.00
2018-03-28T03:14:26.806Z,30.00
2018-03-28T03:16:54.749Z,30.00
2018-03-28T03:19:22.683Z,29.90
2018-03-28T03:21:51.304Z,30.00
2018-03-28T03:24:19.247Z,29.90
2018-03-28T03:26:47.179Z,29.90
2018-03-28T03:29:15.051Z,30.00
2018-03-28T03:31:43.633Z,30.00
2018-03-28T03:34:12.143Z,29.80
2018-03-28T03:36:40.064Z,29.60
2018-03-28T03:39:08.101Z,29.60
2018-03-28T03:41:35.972Z,29.40
2018-03-28T03:44:03.842Z,29.40
2018-03-28T03:46:31.725Z,29.20
2018-03-28T03:48:59.529Z,29.10
2018-03-28T03:51:28.167Z,29.20
2018-03-28T03:53:56.034Z,29.20
2018-03-28T03:56:23.882Z,29.20
2018-03-28T03:58:51.825Z,29.20
2018-03-28T04:01:19.745Z,29.20
2018-03-28T04:03:47.645Z,29.20
2018-03-28T04:06:15.475Z,29.30
2018-03-28T04:08:43.443Z,29.20
2018-03-28T04:11:11.260Z,29.30
2018-03-28T04:13:39.155Z,29.40
2018-03-28T04:16:07.067Z,29.40
2018-03-28T04:18:35.724Z,29.60
2018-03-28T04:21:03.583Z,29.50
2018-03-28T04:23:31.402Z,29.60
2018-03-28T04:25:59.391Z,29.40
2018-03-28T04:28:27.264Z,29.50
2018-03-28T04:30:55.192Z,29.60
2018-03-28T04:33:23.161Z,29.70
2018-03-28T04:35:50.979Z,29.60
2018-03-28T04:38:18.904Z,29.70
2018-03-28T04:40:46.767Z,29.60
2018-03-28T04:43:14.564Z,29.70
2018-03-28T04:45:42.550Z,29.60
2018-03-28T04:48:10.500Z,29.70
2018-03-28T04:50:38.400Z,29.70
2018-03-28T04:53:07.057Z,29.90
2018-03-28T04:55:34.980Z,29.80
2018-03-28T04:58:02.982Z,29.70
2018-03-28T05:00:30.751Z,29.90
2018-03-28T05:02:58.594Z,29.80
2018-03-28T05:05:26.591Z,29.90
2018-03-28T05:07:54.453Z,29.80
2018-03-28T05:10:22.246Z,29.90
2018-03-28T05:12:50.817Z,30.00
2018-03-28T05:15:19.380Z,30.00
2018-03-28T05:17:47.209Z,29.90
2018-03-28T05:20:15.093Z,30.00
2018-03-28T05:22:42.902Z,29.90
2018-03-28T05:25:10.847Z,29.90
2018-03-28T05:27:38.598Z,29.90
2018-03-28T05:30:06.480Z,29.80
2018-03-28T05:32:34.449Z,29.70
2018-03-28T05:35:02.248Z,29.60
2018-03-28T05:37:30.123Z,29.50
2018-03-28T05:39:58.079Z,29.40
2018-03-28T05:42:25.874Z,29.40
2018-03-28T05:44:53.890Z,29.40
2018-03-28T05:47:22.586Z,29.60
2018-03-28T05:49:50.424Z,29.50
2018-03-28T05:52:18.296Z,29.50
2018-03-28T05:54:47.017Z,29.70
2018-03-28T05:57:14.763Z,29.50
2018-03-28T05:59:42.539Z,29.40
2018-03-28T06:02:10.305Z,29.40
2018-03-28T06:04:38.056Z,29.40
2018-03-28T06:07:05.889Z,29.50
2018-03-28T06:09:34.900Z,28.40
2018-03-28T06:12:05.275Z,28.40
2018-03-28T06:14:34.248Z,30.00
2018-03-28T06:17:03.828Z,31.40
2018-03-28T06:19:32.288Z,31.40
2018-03-28T06:22:00.815Z,35.10
2018-03-28T07:04:21.828Z,27.20
2018-03-28T14:05:27.066Z,27.50
2018-03-28T14:07:54.812Z,27.70
2018-03-28T14:10:23.763Z,27.20
2018-03-28T14:12:51.544Z,27.60
2018-03-28T14:15:19.362Z,27.30
2018-03-28T14:17:47.933Z,27.40
2018-03-28T14:20:15.823Z,27.30
2018-03-28T14:22:43.556Z,28.00
2018-03-28T14:25:11.464Z,27.70
2018-03-28T14:27:39.220Z,27.60
2018-03-28T14:30:07.023Z,27.30
2018-03-28T14:32:34.853Z,27.40
2018-03-28T14:35:02.688Z,28.10
2018-03-28T14:37:30.444Z,27.60
2018-03-28T14:39:58.238Z,28.50
2018-03-28T14:42:26.059Z,27.80
2018-03-28T14:44:54.871Z,28.20
2018-03-28T14:47:22.738Z,28.10
2018-03-28T14:49:50.756Z,27.80
2018-03-28T14:52:18.595Z,27.80
2018-03-28T14:54:46.322Z,28.00
2018-03-28T14:57:14.114Z,28.10
2018-03-28T14:59:41.912Z,28.10
2018-03-28T15:02:09.876Z,27.90
2018-03-28T15:04:37.677Z,27.80
2018-03-28T15:07:05.574Z,28.00
2018-03-28T15:09:33.385Z,28.30
2018-03-28T15:12:01.968Z,28.50
2018-03-28T15:14:31.406Z,28.40
2018-03-28T15:16:59.222Z,28.40
2018-03-28T15:19:26.913Z,28.50
2018-03-28T15:21:54.713Z,28.70
2018-03-28T15:24:22.570Z,28.50
2018-03-28T15:26:50.486Z,28.60
2018-03-28T15:29:19.076Z,28.70
2018-03-28T15:31:47.705Z,28.70
2018-03-28T15:34:15.480Z,28.70
2018-03-28T15:36:43.326Z,28.70
2018-03-28T15:39:11.108Z,28.80
2018-03-28T15:41:39.076Z,28.70
2018-03-28T15:44:06.869Z,28.70
2018-03-28T15:46:35.384Z,28.70
2018-03-28T15:49:03.280Z,28.70
2018-03-28T15:51:31.119Z,28.60
2018-03-28T15:53:58.907Z,28.60
2018-03-28T15:56:26.692Z,28.50
2018-03-28T15:58:54.548Z,28.30
2018-03-28T16:01:22.488Z,28.50
2018-03-28T16:03:50.378Z,28.30
2018-03-28T16:06:18.142Z,28.30
2018-03-28T16:08:45.954Z,28.40
2018-03-28T16:11:13.803Z,28.50
2018-03-28T16:13:42.469Z,28.70
2018-03-28T16:16:10.247Z,28.60
2018-03-28T16:18:38.909Z,28.70
2018-03-28T16:21:06.708Z,28.70
2018-03-28T16:23:34.520Z,28.70
2018-03-28T16:26:02.416Z,28.70
2018-03-28T16:28:31.062Z,28.80
2018-03-28T16:30:58.813Z,28.80
2018-03-28T16:33:26.739Z,28.80
2018-03-28T16:35:55.356Z,28.90
2018-03-28T16:38:23.142Z,28.90
2018-03-28T16:40:50.985Z,28.90
2018-03-28T16:43:18.734Z,28.90
2018-03-28T16:45:46.559Z,28.90
2018-03-28T16:48:14.490Z,28.90
2018-03-28T16:50:42.236Z,28.90
2018-03-28T16:53:10.189Z,29.00
2018-03-28T16:55:37.956Z,29.00
2018-03-28T16:58:05.853Z,29.00
2018-03-28T17:00:33.745Z,28.90
2018-03-28T17:03:01.637Z,29.00
2018-03-28T17:05:29.498Z,29.10
2018-03-28T17:07:58.977Z,29.60
2018-03-28T17:10:26.723Z,29.60
2018-03-28T17:12:54.687Z,29.30
2018-03-28T17:15:22.506Z,29.80
2018-03-28T17:17:50.327Z,29.80
2018-03-28T17:20:18.327Z,29.60
2018-03-28T17:22:46.966Z,30.20
2018-03-28T17:25:15.137Z,30.20
2018-03-28T17:27:43.106Z,30.20
2018-03-28T17:30:11.078Z,30.00
2018-03-28T17:32:38.883Z,30.40
2018-03-28T17:35:06.820Z,30.60
2018-03-28T17:37:35.429Z,30.80
2018-03-28T17:40:03.356Z,30.80
2018-03-28T17:42:31.179Z,30.80
2018-03-28T17:44:59.185Z,30.70
2018-03-28T17:47:27.093Z,30.60
2018-03-28T17:49:55.708Z,30.60
2018-03-28T17:52:23.473Z,30.60
2018-03-28T17:54:51.310Z,30.50
2018-03-28T17:57:19.136Z,30.50
2018-03-28T17:59:46.915Z,30.40
2018-03-28T18:02:15.839Z,30.50
2018-03-28T18:04:43.742Z,30.40
2018-03-28T18:07:11.657Z,30.50
2018-03-28T18:09:39.412Z,30.40
2018-03-28T18:12:07.290Z,30.30
2018-03-28T18:14:35.183Z,30.20
2018-03-28T18:17:03.172Z,30.30
2018-03-28T18:19:30.907Z,30.20
2018-03-28T18:21:58.800Z,30.20
2018-03-28T18:24:26.635Z,30.20
2018-03-28T18:26:54.613Z,30.20
2018-03-28T18:29:22.393Z,30.10
2018-03-28T18:31:50.132Z,30.10
2018-03-28T18:34:17.909Z,30.10
2018-03-28T18:36:45.813Z,30.00
2018-03-28T18:39:14.330Z,30.10
2018-03-28T18:41:42.208Z,30.00
2018-03-28T18:44:10.131Z,30.00
2018-03-28T18:46:38.757Z,30.00
2018-03-28T18:49:06.612Z,30.00
2018-03-28T18:51:34.616Z,30.20
2018-03-28T18:54:02.431Z,30.10
2018-03-28T18:56:30.292Z,30.20
2018-03-28T18:58:58.196Z,30.10
2018-03-28T19:01:26.033Z,30.10
2018-03-28T19:03:54.003Z,30.10
2018-03-28T19:06:21.914Z,30.00
2018-03-28T19:08:49.793Z,30.00
2018-03-28T19:11:18.456Z,30.00
2018-03-28T19:13:46.457Z,30.00
2018-03-28T19:16:15.057Z,30.00
2018-03-28T19:18:42.846Z,30.00
2018-03-28T19:21:10.785Z,30.00
2018-03-28T19:23:38.542Z,30.00
2018-03-28T19:26:06.513Z,30.00
2018-03-28T19:28:34.413Z,30.00
2018-03-28T19:31:02.246Z,30.00
2018-03-28T19:33:30.131Z,30.00
2018-03-28T19:35:58.037Z,30.00
2018-03-28T19:38:25.967Z,30.00
2018-03-28T19:40:53.712Z,30.00
2018-03-28T19:43:21.517Z,30.00
2018-03-28T19:45:49.341Z,30.00
2018-03-28T19:48:17.233Z,30.00
2018-03-28T19:50:45.180Z,30.00
2018-03-28T19:53:13.150Z,30.00
2018-03-28T19:55:41.091Z,30.00
2018-03-28T19:58:08.870Z,30.00
2018-03-28T20:00:36.706Z,30.00
2018-03-28T20:03:05.555Z,30.00
2018-03-28T20:05:33.528Z,30.00
2018-03-28T20:08:01.351Z,30.00
2018-03-28T20:10:29.161Z,30.00
2018-03-28T20:12:57.089Z,30.00
2018-03-28T20:15:25.074Z,30.00
2018-03-28T20:17:52.909Z,30.00
2018-03-28T20:20:20.866Z,30.00
2018-03-28T20:22:48.894Z,30.00
2018-03-28T20:25:16.802Z,30.00
2018-03-28T20:27:44.822Z,30.00
2018-03-28T20:30:12.653Z,29.90
2018-03-28T20:32:40.419Z,29.90
2018-03-28T20:35:08.309Z,29.80
2018-03-28T20:37:36.179Z,29.90
2018-03-28T20:40:03.997Z,29.70
2018-03-28T20:42:31.884Z,29.70
2018-03-28T20:44:59.639Z,29.80
2018-03-28T20:47:27.549Z,29.70
2018-03-28T20:49:55.355Z,29.80
2018-03-28T20:52:23.311Z,29.80
2018-03-28T20:54:51.140Z,29.80
2018-03-28T20:57:18.940Z,29.80
2018-03-28T20:59:46.820Z,29.80
2018-03-28T21:02:14.716Z,29.80
2018-03-28T21:04:42.738Z,29.80
2018-03-28T21:07:10.613Z,29.80
2018-03-28T21:09:38.565Z,29.90
2018-03-28T21:12:07.359Z,30.00
2018-03-28T21:14:35.229Z,29.90
2018-03-28T21:17:02.994Z,29.90
2018-03-28T21:19:30.932Z,29.90
2018-03-28T21:21:59.618Z,30.00
2018-03-28T21:24:28.124Z,30.00
2018-03-28T21:26:55.987Z,29.90
2018-03-28T21:29:23.788Z,29.90
2018-03-28T21:31:51.592Z,30.00
2018-03-28T21:34:20.295Z,30.00
2018-03-28T21:36:48.258Z,30.00
2018-03-28T21:39:16.062Z,30.00
2018-03-28T21:41:43.912Z,30.00
2018-03-28T21:44:11.716Z,30.00
2018-03-28T21:46:39.688Z,29.90
2018-03-28T21:49:07.459Z,29.90
2018-03-28T21:51:36.260Z,30.00
2018-03-28T21:54:04.089Z,29.90
2018-03-28T21:56:31.994Z,29.90
2018-03-28T21:58:59.886Z,29.80
2018-03-28T22:01:27.838Z,29.80
2018-03-28T22:03:55.769Z,29.70
2018-03-28T22:06:24.280Z,29.70
2018-03-28T22:08:52.105Z,29.60
2018-03-28T22:11:19.992Z,29.60
2018-03-28T22:13:48.654Z,29.60
2018-03-28T22:16:16.527Z,29.60
2018-03-28T22:18:45.108Z,29.70
2018-03-28T22:21:13.091Z,30.00
2018-03-28T22:23:41.856Z,29.70
2018-03-28T22:26:10.428Z,29.70
2018-03-28T22:28:38.179Z,29.60
2018-03-28T22:31:06.069Z,29.80
2018-03-28T22:33:33.823Z,29.80
2018-03-28T22:36:01.626Z,29.70
2018-03-28T22:38:29.347Z,29.70
2018-03-28T22:40:57.179Z,29.70
2018-03-28T22:43:25.044Z,29.80
2018-03-28T22:45:52.997Z,29.80
2018-03-28T22:48:20.865Z,29.80
2018-03-28T22:50:49.321Z,29.80
2018-03-28T22:53:17.150Z,29.80
2018-03-28T22:55:44.932Z,29.80
2018-03-28T22:58:13.619Z,29.90
2018-03-28T23:00:41.658Z,29.90
2018-03-28T23:03:09.401Z,29.80
2018-03-28T23:05:37.326Z,29.90
2018-03-28T23:08:05.104Z,29.80
2018-03-28T23:10:32.848Z,29.90
2018-03-28T23:13:00.758Z,29.80
2018-03-28T23:15:28.570Z,29.80
2018-03-28T23:17:57.240Z,29.90
2018-03-28T23:20:25.095Z,29.80
2018-03-28T23:22:52.842Z,29.90
2018-03-28T23:25:20.790Z,29.70
2018-03-28T23:27:48.654Z,29.70
2018-03-28T23:30:16.465Z,29.70
2018-03-28T23:32:45.192Z,29.70
2018-03-28T23:35:13.001Z,29.60
2018-03-28T23:37:40.772Z,29.60
2018-03-28T23:40:09.349Z,29.60
2018-03-28T23:42:37.092Z,29.50
2018-03-28T23:45:04.921Z,29.50
2018-03-28T23:47:32.748Z,29.50
2018-03-28T23:50:02.265Z,29.70
2018-03-28T23:52:30.040Z,29.60
2018-03-28T23:54:57.820Z,29.60
2018-03-28T23:57:25.539Z,29.50
2018-03-28T23:59:54.276Z,29.60
